createdAt,value
2024-01-14T00:00:35.948Z,2.40
2024-01-14T00:03:03.482Z,2.40
2024-01-14T00:05:30.814Z,2.40
2024-01-14T00:07:57.894Z,2.50
2024-01-14T00:10:25.159Z,2.50
2024-01-14T00:12:52.216Z,2.40
2024-01-14T00:15:20.321Z,2.50
2024-01-14T00:17:48.019Z,2.40
2024-01-14T00:20:15.224Z,2.40
2024-01-14T00:22:42.229Z,2.50
2024-01-14T00:25:09.658Z,2.50
2024-01-14T00:27:36.979Z,2.40
2024-01-14T00:30:04.686Z,2.40
2024-01-14T00:32:31.802Z,2.50
2024-01-14T00:34:58.790Z,2.50
2024-01-14T00:37:26.279Z,2.40
2024-01-14T00:39:53.508Z,2.40
2024-01-14T00:42:20.570Z,2.50
2024-01-14T00:44:48.097Z,2.50
2024-01-14T00:47:15.139Z,2.50
2024-01-14T00:49:42.639Z,2.50
2024-01-14T00:52:09.892Z,2.50
2024-01-14T00:54:37.122Z,2.50
2024-01-14T00:57:05.464Z,2.50
2024-01-14T00:59:32.605Z,2.40
2024-01-14T01:01:59.653Z,2.40
2024-01-14T01:04:26.807Z,2.40
2024-01-14T01:06:54.239Z,2.40
2024-01-14T01:09:21.475Z,2.40
2024-01-14T01:11:48.798Z,2.40
2024-01-14T01:14:16.524Z,2.40
2024-01-14T01:16:43.761Z,2.40
2024-01-14T01:19:11.087Z,2.40
2024-01-14T01:21:38.442Z,2.40
2024-01-14T01:24:05.779Z,2.40
2024-01-14T01:26:32.962Z,2.40
2024-01-14T01:29:02.230Z,2.40
2024-01-14T01:31:35.441Z,2.50
2024-01-14T01:34:09.248Z,2.50
2024-01-14T01:36:37.565Z,2.50
2024-01-14T01:39:04.828Z,2.40
2024-01-14T01:41:32.066Z,2.40
2024-01-14T01:43:59.316Z,2.40
2024-01-14T01:46:26.524Z,2.50
2024-01-14T01:48:54.834Z,2.40
2024-01-14T01:51:22.992Z,2.40
2024-01-14T01:53:50.405Z,2.50
2024-01-14T01:56:18.849Z,2.40
2024-01-14T01:58:46.919Z,2.40
2024-01-14T02:01:14.121Z,2.40
2024-01-14T02:03:41.690Z,2.40
2024-01-14T02:06:11.452Z,2.40
2024-01-14T02:08:38.884Z,2.40
2024-01-14T02:11:06.735Z,2.40
2024-01-14T02:13:34.387Z,2.40
2024-01-14T02:16:01.973Z,2.40
2024-01-14T02:18:29.071Z,2.40
2024-01-14T02:20:57.642Z,2.40
2024-01-14T02:23:26.945Z,2.40
2024-01-14T02:25:53.984Z,2.40
2024-01-14T02:28:22.176Z,2.40
2024-01-14T02:30:50.762Z,2.40
2024-01-14T02:33:18.577Z,2.40
2024-01-14T02:35:45.642Z,2.40
2024-01-14T02:38:12.958Z,2.40
2024-01-14T02:40:40.200Z,2.40
2024-01-14T02:43:07.190Z,2.40
2024-01-14T02:45:34.533Z,2.40
2024-01-14T02:48:01.711Z,2.40
2024-01-14T02:50:28.877Z,2.40
2024-01-14T02:52:56.333Z,2.40
2024-01-14T02:55:23.301Z,2.50
2024-01-14T02:57:50.465Z,2.50
2024-01-14T03:00:18.046Z,2.50
2024-01-14T03:02:45.111Z,2.40
2024-01-14T03:05:12.199Z,2.40
2024-01-14T03:07:39.641Z,2.50
2024-01-14T03:10:07.288Z,2.40
2024-01-14T03:12:34.883Z,2.40
2024-01-14T03:15:02.084Z,2.40
2024-01-14T03:17:29.493Z,2.40
2024-01-14T03:19:56.747Z,2.40
2024-01-14T03:22:23.819Z,2.40
2024-01-14T03:24:50.850Z,2.50
2024-01-14T03:27:18.011Z,2.40
2024-01-14T03:29:45.542Z,2.50
2024-01-14T03:32:12.915Z,2.40
2024-01-14T03:34:39.912Z,2.40
2024-01-14T03:37:07.126Z,2.50
2024-01-14T03:39:34.278Z,2.50
2024-01-14T03:42:01.555Z,2.50
2024-01-14T03:44:31.357Z,2.50
2024-01-14T03:46:58.369Z,2.50
2024-01-14T03:49:25.538Z,2.50
2024-01-14T03:51:52.720Z,2.50
2024-01-14T03:54:20.098Z,2.50
2024-01-14T03:56:47.151Z,2.50
2024-01-14T03:59:14.221Z,2.50
2024-01-14T04:01:41.627Z,2.50
2024-01-14T04:04:09.116Z,2.40
2024-01-14T04:06:36.780Z,2.40
2024-01-14T04:09:04.290Z,2.50
2024-01-14T04:11:31.317Z,2.50
2024-01-14T04:13:58.543Z,2.40
2024-01-14T04:16:25.543Z,2.40
2024-01-14T04:18:52.821Z,2.40
2024-01-14T04:21:26.393Z,2.40
2024-01-14T04:23:53.831Z,2.50
2024-01-14T04:26:24.793Z,2.50
2024-01-14T04:28:52.802Z,2.50
2024-01-14T04:31:20.211Z,2.50
2024-01-14T04:33:48.660Z,2.50
2024-01-14T04:36:16.832Z,2.50
2024-01-14T04:38:44.260Z,2.40
2024-01-14T04:41:11.879Z,2.50
2024-01-14T04:43:39.439Z,2.50
2024-01-14T04:46:12.210Z,2.50
2024-01-14T04:48:39.495Z,2.50
2024-01-14T04:51:06.980Z,2.50
2024-01-14T04:53:37.155Z,2.50
2024-01-14T04:56:09.666Z,2.50
2024-01-14T04:58:37.483Z,2.50
2024-01-14T05:01:04.879Z,2.50
2024-01-14T05:03:32.099Z,2.50
2024-01-14T05:05:59.499Z,2.50
2024-01-14T05:08:26.662Z,2.50
2024-01-14T05:10:53.689Z,2.50
2024-01-14T05:13:20.941Z,2.50
2024-01-14T05:15:48.002Z,2.50
2024-01-14T05:18:15.512Z,2.50
2024-01-14T05:20:42.821Z,2.50
2024-01-14T05:23:10.309Z,2.50
2024-01-14T05:25:37.527Z,2.50
2024-01-14T05:28:04.993Z,2.50
2024-01-14T05:30:32.512Z,2.50
2024-01-14T05:32:59.783Z,2.50
2024-01-14T05:35:26.807Z,2.50
2024-01-14T05:37:54.318Z,2.50
2024-01-14T05:40:21.378Z,2.50
2024-01-14T05:42:48.358Z,2.50
2024-01-14T05:45:15.582Z,2.50
2024-01-14T05:47:43.181Z,2.50
2024-01-14T05:50:10.657Z,2.50
2024-01-14T05:52:37.740Z,2.50
2024-01-14T05:55:05.940Z,2.50
2024-01-14T05:57:33.068Z,2.50
2024-01-14T06:00:00.545Z,2.60
2024-01-14T06:02:28.875Z,2.60
2024-01-14T06:04:56.213Z,2.60
2024-01-14T06:07:23.782Z,2.60
2024-01-14T06:09:51.028Z,2.60
2024-01-14T06:12:18.106Z,2.50
2024-01-14T06:14:45.371Z,2.60
2024-01-14T06:17:12.351Z,2.60
2024-01-14T06:19:40.329Z,2.60
2024-01-14T06:22:07.553Z,2.60
2024-01-14T06:24:34.911Z,2.60
2024-01-14T06:27:02.213Z,2.60
2024-01-14T06:29:29.421Z,2.60
2024-01-14T06:31:56.562Z,2.60
2024-01-14T06:34:23.786Z,2.70
2024-01-14T06:36:50.761Z,2.60
2024-01-14T06:39:17.833Z,2.70
2024-01-14T06:41:46.223Z,2.60
2024-01-14T06:44:14.532Z,2.70
2024-01-14T06:46:45.141Z,2.70
2024-01-14T06:49:12.764Z,2.70
2024-01-14T06:51:46.863Z,2.70
2024-01-14T06:54:14.240Z,2.70
2024-01-14T06:56:48.988Z,2.70
2024-01-14T06:59:22.166Z,2.70
2024-01-14T07:01:50.521Z,2.70
2024-01-14T07:04:18.457Z,2.70
2024-01-14T07:06:45.931Z,2.70
2024-01-14T07:09:14.273Z,2.70
2024-01-14T07:11:41.880Z,2.70
2024-01-14T07:14:09.122Z,2.70
2024-01-14T07:16:37.535Z,2.70
2024-01-14T07:19:05.301Z,2.70
2024-01-14T07:21:33.027Z,2.70
2024-01-14T07:24:00.652Z,2.70
2024-01-14T07:26:28.053Z,2.70
2024-01-14T07:28:55.601Z,2.70
2024-01-14T07:31:35.930Z,2.70
2024-01-14T07:34:03.229Z,2.70
2024-01-14T07:36:30.668Z,2.70
2024-01-14T07:38:59.688Z,2.70
2024-01-14T07:41:26.955Z,2.70
2024-01-14T07:43:54.233Z,2.70
2024-01-14T07:46:22.023Z,2.70
2024-01-14T07:48:49.511Z,2.70
2024-01-14T07:51:16.704Z,2.70
2024-01-14T07:53:44.006Z,2.70
2024-01-14T07:56:11.098Z,2.70
2024-01-14T07:58:38.694Z,2.70
2024-01-14T08:01:07.713Z,2.70
2024-01-14T08:03:35.978Z,2.70
2024-01-14T08:06:03.500Z,2.70
2024-01-14T08:08:30.623Z,2.70
2024-01-14T08:10:57.657Z,2.70
2024-01-14T08:13:24.833Z,2.70
2024-01-14T08:15:58.138Z,2.70
2024-01-14T08:18:31.172Z,2.70
2024-01-14T08:20:59.326Z,2.70
2024-01-14T08:23:26.394Z,2.80
2024-01-14T08:25:53.977Z,2.80
2024-01-14T08:28:21.820Z,2.70
2024-01-14T08:30:50.102Z,2.80
2024-01-14T08:33:17.644Z,2.80
2024-01-14T08:35:46.386Z,2.80
2024-01-14T08:38:13.666Z,2.80
2024-01-14T08:40:41.032Z,2.80
2024-01-14T08:43:08.183Z,2.80
2024-01-14T08:45:35.488Z,2.80
2024-01-14T08:48:02.674Z,2.80
2024-01-14T08:50:30.313Z,2.80
2024-01-14T08:52:57.334Z,2.90
2024-01-14T08:55:24.560Z,2.90
2024-01-14T08:57:51.567Z,2.90
2024-01-14T09:00:20.423Z,2.90
2024-01-14T09:02:50.672Z,2.90
2024-01-14T09:05:18.550Z,2.90
2024-01-14T09:07:45.798Z,2.90
2024-01-14T09:10:12.808Z,2.90
2024-01-14T09:12:40.000Z,2.90
2024-01-14T09:15:08.948Z,2.90
2024-01-14T09:17:36.659Z,2.90
2024-01-14T09:20:06.690Z,3.00
2024-01-14T09:22:34.049Z,3.00
2024-01-14T09:25:01.085Z,3.00
2024-01-14T09:27:31.877Z,3.00
2024-01-14T09:30:00.259Z,3.00
2024-01-14T09:32:27.624Z,3.00
2024-01-14T09:34:55.981Z,3.00
2024-01-14T09:37:23.105Z,3.00
2024-01-14T09:39:50.519Z,3.00
2024-01-14T09:42:34.486Z,3.00
2024-01-14T09:45:03.340Z,3.00
2024-01-14T09:47:33.236Z,3.00
2024-01-14T09:50:01.884Z,3.10
2024-01-14T09:52:33.699Z,3.00
2024-01-14T09:55:01.829Z,3.10
2024-01-14T09:57:31.474Z,3.10
2024-01-14T10:00:04.475Z,3.10
2024-01-14T10:02:35.259Z,3.10
2024-01-14T10:05:02.355Z,3.10
2024-01-14T10:07:30.282Z,3.10
2024-01-14T10:09:58.907Z,3.10
2024-01-14T10:12:27.964Z,3.10
2024-01-14T10:15:02.335Z,3.10
2024-01-14T10:17:29.700Z,3.10
2024-01-14T10:19:59.308Z,3.10
2024-01-14T10:22:29.864Z,3.20
2024-01-14T10:24:57.666Z,3.20
2024-01-14T10:27:35.131Z,3.20
2024-01-14T10:30:15.677Z,3.30
2024-01-14T10:33:16.916Z,3.30
2024-01-14T10:35:31.958Z,3.30
2024-01-14T10:38:00.560Z,3.30
2024-01-14T10:40:28.059Z,3.30
2024-01-14T10:42:55.299Z,3.30
2024-01-14T10:45:23.323Z,3.30
2024-01-14T10:47:56.851Z,3.30
2024-01-14T10:50:33.937Z,3.30
2024-01-14T10:53:15.997Z,3.30
2024-01-14T10:55:49.703Z,3.30
2024-01-14T10:58:27.031Z,3.30
2024-01-14T11:01:01.840Z,3.30
2024-01-14T11:03:31.159Z,3.30
2024-01-14T11:06:00.009Z,3.40
2024-01-14T11:08:28.701Z,3.40
2024-01-14T11:10:56.833Z,3.40
2024-01-14T11:13:29.626Z,3.40
2024-01-14T11:16:18.037Z,3.50
2024-01-14T11:19:21.285Z,3.50
2024-01-14T11:22:29.263Z,3.50
2024-01-14T11:25:02.405Z,3.50
2024-01-14T11:27:30.703Z,3.50
2024-01-14T11:29:59.924Z,3.50
2024-01-14T11:32:27.448Z,3.60
2024-01-14T11:34:56.876Z,3.60
2024-01-14T11:37:36.563Z,3.60
2024-01-14T11:40:31.404Z,3.60
2024-01-14T11:43:06.796Z,3.70
2024-01-14T11:45:36.168Z,3.70
2024-01-14T11:48:05.934Z,3.70
2024-01-14T11:50:35.434Z,3.70
2024-01-14T11:53:04.788Z,3.70
2024-01-14T11:55:33.558Z,3.70
2024-01-14T11:58:17.898Z,3.80
2024-01-14T12:00:48.019Z,3.80
2024-01-14T12:03:17.198Z,3.90
2024-01-14T12:05:45.538Z,3.90
2024-01-14T12:08:15.549Z,3.90
2024-01-14T12:10:43.117Z,3.90
2024-01-14T12:13:11.187Z,3.90
2024-01-14T12:15:39.940Z,4.00
2024-01-14T12:18:09.537Z,4.00
2024-01-14T12:20:37.151Z,4.00
2024-01-14T12:23:08.907Z,4.00
2024-01-14T12:25:37.371Z,4.10
2024-01-14T12:28:05.563Z,4.10
2024-01-14T12:30:37.324Z,4.10
2024-01-14T12:33:09.988Z,4.10
2024-01-14T12:35:41.603Z,4.10
2024-01-14T12:38:10.190Z,4.20
2024-01-14T12:40:38.310Z,4.20
2024-01-14T12:43:10.484Z,4.20
2024-01-14T12:45:38.039Z,4.20
2024-01-14T12:48:07.166Z,4.20
2024-01-14T12:50:37.839Z,4.20
2024-01-14T12:53:12.310Z,4.30
2024-01-14T12:55:40.011Z,4.30
2024-01-14T12:58:07.171Z,4.30
2024-01-14T13:00:36.019Z,4.30
2024-01-14T13:03:03.680Z,4.40
2024-01-14T13:05:31.232Z,4.40
2024-01-14T13:08:00.836Z,4.40
2024-01-14T13:10:28.112Z,4.40
2024-01-14T13:12:56.382Z,4.50
2024-01-14T13:15:24.057Z,4.50
2024-01-14T13:17:52.980Z,4.50
2024-01-14T13:20:19.980Z,4.50
2024-01-14T13:22:47.989Z,4.50
2024-01-14T13:25:15.171Z,4.50
2024-01-14T13:27:42.757Z,4.60
2024-01-14T13:30:11.808Z,4.70
2024-01-14T13:32:40.009Z,4.70
2024-01-14T13:35:08.870Z,4.70
2024-01-14T13:37:37.488Z,4.70
2024-01-14T13:40:08.515Z,4.70
2024-01-14T13:42:38.769Z,4.70
2024-01-14T13:45:08.775Z,4.70
2024-01-14T13:47:36.289Z,4.70
2024-01-14T13:50:04.991Z,4.80
2024-01-14T13:52:32.421Z,4.80
2024-01-14T13:54:59.603Z,4.90
2024-01-14T13:57:26.691Z,4.90
2024-01-14T13:59:53.815Z,4.90
2024-01-14T14:02:21.335Z,4.90
2024-01-14T14:04:48.592Z,4.90
2024-01-14T14:07:16.001Z,5.00
2024-01-14T14:09:43.454Z,5.00
2024-01-14T14:12:11.718Z,5.00
2024-01-14T14:14:38.993Z,5.00
2024-01-14T14:17:06.643Z,5.00
2024-01-14T14:19:34.052Z,5.00
2024-01-14T14:22:02.032Z,5.00
2024-01-14T14:24:35.231Z,5.10
2024-01-14T14:27:03.182Z,5.10
2024-01-14T14:29:30.732Z,5.10
2024-01-14T14:31:58.305Z,5.10
2024-01-14T14:34:26.353Z,5.10
2024-01-14T14:36:54.097Z,5.20
2024-01-14T14:39:21.353Z,5.20
2024-01-14T14:41:48.835Z,5.30
2024-01-14T14:44:16.342Z,5.30
2024-01-14T14:46:44.996Z,5.30
2024-01-14T14:49:12.490Z,5.30
2024-01-14T14:51:41.567Z,5.30
2024-01-14T14:54:13.821Z,5.30
2024-01-14T14:56:41.618Z,5.30
2024-01-14T14:59:10.530Z,5.40
2024-01-14T15:01:45.256Z,5.40
2024-01-14T15:04:15.658Z,5.40
2024-01-14T15:06:46.729Z,5.40
2024-01-14T15:09:20.255Z,5.50
2024-01-14T15:11:48.349Z,5.50
2024-01-14T15:14:15.721Z,5.50
2024-01-14T15:16:44.133Z,5.50
2024-01-14T15:19:12.336Z,5.50
2024-01-14T15:21:40.381Z,5.50
2024-01-14T15:24:08.742Z,5.50
2024-01-14T15:26:35.997Z,5.50
2024-01-14T15:29:03.082Z,5.60
2024-01-14T15:31:30.973Z,5.60
2024-01-14T15:33:59.261Z,5.60
2024-01-14T15:36:27.188Z,5.60
2024-01-14T15:38:58.090Z,5.60
2024-01-14T15:41:28.745Z,5.70
2024-01-14T15:43:56.182Z,5.70
2024-01-14T15:46:23.397Z,5.70
2024-01-14T15:48:52.061Z,5.70
2024-01-14T15:51:20.774Z,5.70
2024-01-14T15:53:48.325Z,5.70
2024-01-14T15:56:16.093Z,5.70
2024-01-14T15:58:43.234Z,5.80
2024-01-14T16:01:13.740Z,5.80
2024-01-14T16:03:51.115Z,5.80
2024-01-14T16:06:18.813Z,5.80
2024-01-14T16:08:46.928Z,5.80
2024-01-14T16:11:16.231Z,5.80
2024-01-14T16:13:43.747Z,5.80
2024-01-14T16:16:11.446Z,5.90
2024-01-14T16:18:39.210Z,5.90
2024-01-14T16:21:08.680Z,5.90
2024-01-14T16:23:39.169Z,5.90
2024-01-14T16:26:09.975Z,5.90
2024-01-14T16:28:38.693Z,6.00
2024-01-14T16:31:12.205Z,6.00
2024-01-14T16:33:46.581Z,6.00
2024-01-14T16:36:16.638Z,6.00
2024-01-14T16:38:45.306Z,6.00
2024-01-14T16:41:13.084Z,6.00
2024-01-14T16:43:40.216Z,6.00
2024-01-14T16:46:09.020Z,6.10
2024-01-14T16:48:37.633Z,6.10
2024-01-14T16:53:47.283Z,6.10
2024-01-14T16:56:15.986Z,6.10
2024-01-14T16:58:45.285Z,6.10
2024-01-14T17:01:17.319Z,6.10
2024-01-14T17:03:50.782Z,6.20
2024-01-14T17:06:19.930Z,6.20
2024-01-14T17:08:48.940Z,6.20
2024-01-14T17:11:20.433Z,6.20
2024-01-14T17:13:48.441Z,6.20
2024-01-14T17:16:26.879Z,6.20
2024-01-14T17:19:02.161Z,6.30
2024-01-14T17:21:34.807Z,6.30
2024-01-14T17:24:03.501Z,6.30
2024-01-14T17:26:31.188Z,6.30
2024-01-14T17:28:58.566Z,6.30
2024-01-14T17:31:25.925Z,6.30
2024-01-14T17:33:54.561Z,6.30
2024-01-14T17:36:28.130Z,6.40
2024-01-14T17:38:56.081Z,6.40
2024-01-14T17:41:23.489Z,6.40
2024-01-14T17:43:51.246Z,6.40
2024-01-14T17:46:22.949Z,6.40
2024-01-14T17:48:51.338Z,6.40
2024-01-14T17:51:19.967Z,6.40
2024-01-14T17:53:47.115Z,6.50
2024-01-14T17:56:16.943Z,6.50
2024-01-14T17:58:44.897Z,6.50
2024-01-14T18:01:15.429Z,6.50
2024-01-14T18:03:43.427Z,6.50
2024-01-14T18:06:12.734Z,6.50
2024-01-14T18:08:40.735Z,6.50
2024-01-14T18:11:08.125Z,6.50
2024-01-14T18:13:36.616Z,6.60
2024-01-14T18:16:08.495Z,6.60
2024-01-14T18:18:39.758Z,6.60
2024-01-14T18:21:17.110Z,6.60
2024-01-14T18:23:46.299Z,6.60
2024-01-14T18:26:15.260Z,6.60
2024-01-14T18:28:42.973Z,6.60
2024-01-14T18:31:16.523Z,6.60
2024-01-14T18:33:44.389Z,6.60
2024-01-14T18:36:12.658Z,6.60
2024-01-14T18:38:40.973Z,6.60
2024-01-14T18:41:09.854Z,6.60
2024-01-14T18:43:37.122Z,6.60
2024-01-14T18:46:04.250Z,6.70
2024-01-14T18:48:32.121Z,6.70
2024-01-14T18:51:00.082Z,6.70
2024-01-14T18:53:27.328Z,6.70
2024-01-14T18:55:54.626Z,6.80
2024-01-14T18:58:24.787Z,6.70
2024-01-14T19:00:52.258Z,6.70
2024-01-14T19:03:19.552Z,6.70
2024-01-14T19:05:47.769Z,6.80
2024-01-14T19:08:14.838Z,6.80
2024-01-14T19:10:43.446Z,6.80
2024-01-14T19:13:11.553Z,6.80
2024-01-14T19:15:39.819Z,6.80
2024-01-14T19:18:11.555Z,6.80
2024-01-14T19:20:38.990Z,6.70
2024-01-14T19:23:06.165Z,6.70
2024-01-14T19:25:33.294Z,6.80
2024-01-14T19:28:00.720Z,6.80
2024-01-14T19:30:28.242Z,6.80
2024-01-14T19:32:55.801Z,6.80
2024-01-14T19:35:22.935Z,6.80
2024-01-14T19:37:49.993Z,6.70
2024-01-14T19:40:17.246Z,6.80
2024-01-14T19:42:44.921Z,6.70
2024-01-14T19:45:15.376Z,6.70
2024-01-14T19:47:42.604Z,6.70
2024-01-14T19:50:10.885Z,6.80
2024-01-14T19:52:39.616Z,6.80
2024-01-14T19:55:09.895Z,6.80
2024-01-14T19:57:37.898Z,6.80
2024-01-14T20:00:10.802Z,6.80
2024-01-14T20:02:42.403Z,6.80
2024-01-14T20:05:10.188Z,6.80
2024-01-14T20:07:37.320Z,6.80
2024-01-14T20:10:05.451Z,6.80
2024-01-14T20:12:33.027Z,6.80
2024-01-14T20:15:00.199Z,6.80
2024-01-14T20:17:27.430Z,6.80
2024-01-14T20:19:58.672Z,6.80
2024-01-14T20:22:26.054Z,6.80
2024-01-14T20:24:53.618Z,6.80
2024-01-14T20:27:20.780Z,6.80
2024-01-14T20:29:49.083Z,6.80
2024-01-14T20:32:18.263Z,6.90
2024-01-14T20:34:45.634Z,6.90
2024-01-14T20:37:14.228Z,6.90
2024-01-14T20:39:42.467Z,6.90
2024-01-14T20:42:09.573Z,6.90
2024-01-14T20:44:38.062Z,6.90
2024-01-14T20:47:07.078Z,6.90
2024-01-14T20:49:35.229Z,6.90
2024-01-14T20:52:04.171Z,6.90
2024-01-14T20:54:32.016Z,6.90
2024-01-14T20:56:59.039Z,7.00
2024-01-14T20:59:26.114Z,7.00
2024-01-14T21:01:53.124Z,7.00
2024-01-14T21:04:20.505Z,7.00
2024-01-14T21:06:47.831Z,7.00
2024-01-14T21:09:18.555Z,7.00
2024-01-14T21:11:45.894Z,7.00
2024-01-14T21:14:12.949Z,7.00
2024-01-14T21:16:44.307Z,7.00
2024-01-14T21:19:11.838Z,7.00
2024-01-14T21:21:40.233Z,7.00
2024-01-14T21:24:07.345Z,7.00
2024-01-14T21:26:35.965Z,7.00
2024-01-14T21:29:04.144Z,7.00
2024-01-14T21:31:38.648Z,7.00
2024-01-14T21:34:05.966Z,7.00
2024-01-14T21:36:33.610Z,7.00
2024-01-14T21:39:01.043Z,7.00
2024-01-14T21:41:28.415Z,7.00
2024-01-14T21:44:05.021Z,7.00
2024-01-14T21:46:37.417Z,7.10
2024-01-14T21:49:04.834Z,7.10
2024-01-14T21:51:35.199Z,7.10
2024-01-14T21:54:02.302Z,7.10
2024-01-14T21:56:35.512Z,7.10
2024-01-14T21:59:02.522Z,7.10
2024-01-14T22:01:29.713Z,7.10
2024-01-14T22:04:06.925Z,7.10
2024-01-14T22:06:44.752Z,7.10
2024-01-14T22:09:12.385Z,7.10
2024-01-14T22:11:40.041Z,7.10
2024-01-14T22:14:09.932Z,7.10
2024-01-14T22:16:37.466Z,7.10
2024-01-14T22:19:10.669Z,7.00
2024-01-14T22:21:40.106Z,7.00
2024-01-14T22:24:08.403Z,7.10
2024-01-14T22:26:36.147Z,7.00
2024-01-14T22:29:03.908Z,7.10
2024-01-14T22:31:31.390Z,7.10
2024-01-14T22:33:58.841Z,7.00
2024-01-14T22:36:31.907Z,7.10
2024-01-14T22:39:00.229Z,7.10
2024-01-14T22:41:32.113Z,7.10
2024-01-14T22:43:59.924Z,7.10
2024-01-14T22:46:26.964Z,7.10
2024-01-14T22:48:55.246Z,7.10
2024-01-14T22:51:22.797Z,7.10
2024-01-14T22:53:50.431Z,7.10
2024-01-14T22:56:18.211Z,7.10
2024-01-14T22:58:45.590Z,7.10
2024-01-14T23:01:17.714Z,7.10
2024-01-14T23:03:50.487Z,7.10
2024-01-14T23:06:17.934Z,7.10
2024-01-14T23:08:45.640Z,7.10
2024-01-14T23:11:16.270Z,7.10
2024-01-14T23:13:43.899Z,7.00
2024-01-14T23:16:14.733Z,7.00
2024-01-14T23:18:41.913Z,7.00
2024-01-14T23:21:09.387Z,7.00
2024-01-14T23:23:36.638Z,7.00
2024-01-14T23:26:06.265Z,7.10
2024-01-14T23:28:34.701Z,7.00
2024-01-14T23:31:03.977Z,7.00
2024-01-14T23:33:31.611Z,7.10
2024-01-14T23:35:58.859Z,7.00
2024-01-14T23:38:26.421Z,7.10
2024-01-14T23:40:53.633Z,7.00
2024-01-14T23:43:20.914Z,7.10
2024-01-14T23:45:56.175Z,7.00
2024-01-14T23:48:23.440Z,7.10
2024-01-14T23:50:51.014Z,7.10
2024-01-14T23:53:23.801Z,7.00
2024-01-14T23:55:54.257Z,7.10
2024-01-14T23:58:21.246Z,7.10
